Terminal Aerodrome Forecast
Issued by NWS

Home | Current Version | Previous Version | Text Only | Print | Product List | Glossary On
Versions: 1 2 3 4 5 6 7 8 9 10 11 12 13 14 15 16 17 18 19 20 21 22 23 24 25 26 27 28 29 30 31 32
000
FTAK31 PANC 021734
TAFADL
TAF
PADL 021734Z 0218/0318 01015KT P6SM SCT025 OVC035
      TEMPO 0218/0222 BKN025
     FM022300 01016G22KT 5SM -RA BR OVC025
     FM030500 01015KT 3SM -RA BR OVC015
     FM031200 17011KT 2SM -RA BR OVC008=

USA.gov is the U.S. government's official web portal to all federal, state and local government web resources and services.